sensor_id;sensor_type;location;lat;lon;timestamp;P1;durP1;ratioP1;P2;durP2;ratioP2
4704;SDS011;2366;51.332;6.610;2023-05-17T00:00:11;5.37;;;2.47;;
4704;SDS011;2366;51.332;6.610;2023-05-17T00:02:36;2.70;;;2.30;;
4704;SDS011;2366;51.332;6.610;2023-05-17T00:05:02;6.73;;;3.40;;
4704;SDS011;2366;51.332;6.610;2023-05-17T00:07:27;3.33;;;2.70;;
4704;SDS011;2366;51.332;6.610;2023-05-17T00:09:53;6.53;;;2.97;;
4704;SDS011;2366;51.332;6.610;2023-05-17T00:12:18;8.00;;;3.13;;
4704;SDS011;2366;51.332;6.610;2023-05-17T00:14:44;5.97;;;2.30;;
4704;SDS011;2366;51.332;6.610;2023-05-17T00:17:09;5.03;;;2.80;;
4704;SDS011;2366;51.332;6.610;2023-05-17T00:19:34;5.43;;;3.00;;
4704;SDS011;2366;51.332;6.610;2023-05-17T00:22:00;6.27;;;4.07;;
4704;SDS011;2366;51.332;6.610;2023-05-17T00:24:25;5.30;;;3.67;;
4704;SDS011;2366;51.332;6.610;2023-05-17T00:26:51;5.60;;;3.00;;
4704;SDS011;2366;51.332;6.610;2023-05-17T00:29:16;3.20;;;2.90;;
4704;SDS011;2366;51.332;6.610;2023-05-17T00:31:42;3.30;;;2.93;;
4704;SDS011;2366;51.332;6.610;2023-05-17T00:34:07;6.50;;;3.67;;
4704;SDS011;2366;51.332;6.610;2023-05-17T00:36:32;5.87;;;3.00;;
4704;SDS011;2366;51.332;6.610;2023-05-17T00:38:58;6.80;;;2.90;;
4704;SDS011;2366;51.332;6.610;2023-05-17T00:41:23;4.87;;;3.37;;
4704;SDS011;2366;51.332;6.610;2023-05-17T00:43:48;9.43;;;3.00;;
4704;SDS011;2366;51.332;6.610;2023-05-17T00:46:14;7.07;;;3.73;;
4704;SDS011;2366;51.332;6.610;2023-05-17T00:48:40;7.60;;;3.10;;
4704;SDS011;2366;51.332;6.610;2023-05-17T00:51:06;5.18;;;3.40;;
4704;SDS011;2366;51.332;6.610;2023-05-17T00:53:32;6.27;;;2.47;;
4704;SDS011;2366;51.332;6.610;2023-05-17T00:55:58;7.70;;;3.15;;
4704;SDS011;2366;51.332;6.610;2023-05-17T00:58:24;4.30;;;3.20;;
4704;SDS011;2366;51.332;6.610;2023-05-17T01:00:50;13.43;;;3.50;;
4704;SDS011;2366;51.332;6.610;2023-05-17T01:03:16;4.87;;;2.73;;
4704;SDS011;2366;51.332;6.610;2023-05-17T01:05:41;5.13;;;3.77;;
4704;SDS011;2366;51.332;6.610;2023-05-17T01:08:06;8.07;;;4.17;;
4704;SDS011;2366;51.332;6.610;2023-05-17T01:13:37;8.50;;;4.50;;
4704;SDS011;2366;51.332;6.610;2023-05-17T01:19:01;6.70;;;3.33;;
4704;SDS011;2366;51.332;6.610;2023-05-17T01:24:37;9.27;;;4.97;;
4704;SDS011;2366;51.332;6.610;2023-05-17T01:27:13;5.50;;;3.40;;
4704;SDS011;2366;51.332;6.610;2023-05-17T01:29:40;8.02;;;3.50;;
4704;SDS011;2366;51.332;6.610;2023-05-17T01:32:08;9.63;;;3.90;;
4704;SDS011;2366;51.332;6.610;2023-05-17T01:34:35;7.47;;;4.25;;
4704;SDS011;2366;51.332;6.610;2023-05-17T01:37:00;13.10;;;4.20;;
4704;SDS011;2366;51.332;6.610;2023-05-17T01:39:25;6.20;;;3.87;;
4704;SDS011;2366;51.332;6.610;2023-05-17T01:42:33;4.50;;;3.57;;
4704;SDS011;2366;51.332;6.610;2023-05-17T01:45:11;10.38;;;4.32;;
4704;SDS011;2366;51.332;6.610;2023-05-17T01:50:18;9.15;;;4.18;;
4704;SDS011;2366;51.332;6.610;2023-05-17T01:52:49;7.85;;;4.95;;
4704;SDS011;2366;51.332;6.610;2023-05-17T01:55:40;14.05;;;5.68;;
4704;SDS011;2366;51.332;6.610;2023-05-17T01:58:12;11.00;;;4.53;;
4704;SDS011;2366;51.332;6.610;2023-05-17T02:00:38;5.93;;;4.10;;
4704;SDS011;2366;51.332;6.610;2023-05-17T02:03:11;8.63;;;4.63;;
4704;SDS011;2366;51.332;6.610;2023-05-17T02:05:37;9.23;;;4.60;;
4704;SDS011;2366;51.332;6.610;2023-05-17T02:08:02;4.83;;;3.87;;
4704;SDS011;2366;51.332;6.610;2023-05-17T02:10:28;10.43;;;4.00;;
4704;SDS011;2366;51.332;6.610;2023-05-17T02:12:53;11.73;;;4.30;;
4704;SDS011;2366;51.332;6.610;2023-05-17T02:15:18;7.37;;;3.83;;
4704;SDS011;2366;51.332;6.610;2023-05-17T02:17:44;6.67;;;3.93;;
4704;SDS011;2366;51.332;6.610;2023-05-17T02:20:09;23.13;;;4.97;;
4704;SDS011;2366;51.332;6.610;2023-05-17T02:22:35;11.48;;;4.80;;
4704;SDS011;2366;51.332;6.610;2023-05-17T02:25:01;17.37;;;5.27;;
4704;SDS011;2366;51.332;6.610;2023-05-17T02:27:26;9.70;;;5.17;;
4704;SDS011;2366;51.332;6.610;2023-05-17T02:29:52;10.40;;;5.40;;
4704;SDS011;2366;51.332;6.610;2023-05-17T02:32:17;8.90;;;4.40;;
4704;SDS011;2366;51.332;6.610;2023-05-17T02:34:42;25.50;;;5.43;;
4704;SDS011;2366;51.332;6.610;2023-05-17T02:37:08;7.17;;;5.30;;
4704;SDS011;2366;51.332;6.610;2023-05-17T02:39:33;12.70;;;5.53;;
4704;SDS011;2366;51.332;6.610;2023-05-17T02:41:58;16.70;;;6.30;;
4704;SDS011;2366;51.332;6.610;2023-05-17T02:44:24;14.17;;;5.97;;
4704;SDS011;2366;51.332;6.610;2023-05-17T02:46:49;15.10;;;5.93;;
4704;SDS011;2366;51.332;6.610;2023-05-17T02:49:14;20.03;;;6.47;;
4704;SDS011;2366;51.332;6.610;2023-05-17T02:51:40;16.50;;;6.50;;
4704;SDS011;2366;51.332;6.610;2023-05-17T02:54:05;13.20;;;6.67;;
4704;SDS011;2366;51.332;6.610;2023-05-17T02:56:30;13.13;;;6.00;;
4704;SDS011;2366;51.332;6.610;2023-05-17T02:58:56;23.27;;;6.63;;
4704;SDS011;2366;51.332;6.610;2023-05-17T03:01:25;12.75;;;5.82;;
4704;SDS011;2366;51.332;6.610;2023-05-17T03:03:50;11.57;;;5.27;;
4704;SDS011;2366;51.332;6.610;2023-05-17T03:06:16;28.10;;;7.50;;
4704;SDS011;2366;51.332;6.610;2023-05-17T03:08:41;8.40;;;6.43;;
4704;SDS011;2366;51.332;6.610;2023-05-17T03:11:06;17.23;;;6.33;;
4704;SDS011;2366;51.332;6.610;2023-05-17T03:13:32;9.07;;;5.70;;
4704;SDS011;2366;51.332;6.610;2023-05-17T03:15:57;13.63;;;7.07;;
4704;SDS011;2366;51.332;6.610;2023-05-17T03:18:22;12.50;;;6.40;;
4704;SDS011;2366;51.332;6.610;2023-05-17T03:20:48;11.53;;;6.63;;
4704;SDS011;2366;51.332;6.610;2023-05-17T03:23:13;19.17;;;7.03;;
4704;SDS011;2366;51.332;6.610;2023-05-17T03:25:38;17.93;;;6.93;;
4704;SDS011;2366;51.332;6.610;2023-05-17T03:28:04;13.33;;;7.00;;
4704;SDS011;2366;51.332;6.610;2023-05-17T03:30:29;11.90;;;7.20;;
4704;SDS011;2366;51.332;6.610;2023-05-17T03:32:54;14.33;;;7.80;;
4704;SDS011;2366;51.332;6.610;2023-05-17T03:35:20;15.60;;;7.07;;
4704;SDS011;2366;51.332;6.610;2023-05-17T03:37:45;14.30;;;8.20;;
4704;SDS011;2366;51.332;6.610;2023-05-17T03:40:11;17.10;;;7.10;;
4704;SDS011;2366;51.332;6.610;2023-05-17T03:42:36;26.57;;;7.93;;
4704;SDS011;2366;51.332;6.610;2023-05-17T03:45:02;12.50;;;6.68;;
4704;SDS011;2366;51.332;6.610;2023-05-17T03:47:28;22.70;;;7.68;;
4704;SDS011;2366;51.332;6.610;2023-05-17T03:49:53;11.43;;;7.87;;
4704;SDS011;2366;51.332;6.610;2023-05-17T03:52:19;13.57;;;7.10;;
4704;SDS011;2366;51.332;6.610;2023-05-17T03:54:44;10.80;;;7.10;;
4704;SDS011;2366;51.332;6.610;2023-05-17T03:57:10;15.23;;;6.90;;
4704;SDS011;2366;51.332;6.610;2023-05-17T03:59:35;17.97;;;8.60;;
4704;SDS011;2366;51.332;6.610;2023-05-17T04:02:00;14.73;;;7.87;;
4704;SDS011;2366;51.332;6.610;2023-05-17T04:04:26;17.60;;;8.60;;
4704;SDS011;2366;51.332;6.610;2023-05-17T04:06:51;16.43;;;7.80;;
4704;SDS011;2366;51.332;6.610;2023-05-17T04:09:16;12.33;;;8.43;;
4704;SDS011;2366;51.332;6.610;2023-05-17T04:11:42;12.67;;;6.93;;
4704;SDS011;2366;51.332;6.610;2023-05-17T04:14:07;23.40;;;7.30;;
4704;SDS011;2366;51.332;6.610;2023-05-17T04:16:32;12.10;;;7.00;;
4704;SDS011;2366;51.332;6.610;2023-05-17T04:19:01;20.33;;;8.63;;
4704;SDS011;2366;51.332;6.610;2023-05-17T04:21:26;21.15;;;8.27;;
4704;SDS011;2366;51.332;6.610;2023-05-17T04:23:52;14.90;;;7.10;;
4704;SDS011;2366;51.332;6.610;2023-05-17T04:26:17;21.50;;;7.80;;
4704;SDS011;2366;51.332;6.610;2023-05-17T04:28:43;13.87;;;7.10;;
4704;SDS011;2366;51.332;6.610;2023-05-17T04:31:09;15.03;;;7.57;;
4704;SDS011;2366;51.332;6.610;2023-05-17T04:33:35;11.07;;;7.23;;
4704;SDS011;2366;51.332;6.610;2023-05-17T04:36:00;16.10;;;7.63;;
4704;SDS011;2366;51.332;6.610;2023-05-17T04:38:26;18.85;;;8.55;;
4704;SDS011;2366;51.332;6.610;2023-05-17T04:40:52;14.97;;;8.13;;
4704;SDS011;2366;51.332;6.610;2023-05-17T04:43:20;13.70;;;7.13;;
4704;SDS011;2366;51.332;6.610;2023-05-17T04:45:46;20.73;;;7.82;;
4704;SDS011;2366;51.332;6.610;2023-05-17T04:48:11;18.10;;;7.40;;
4704;SDS011;2366;51.332;6.610;2023-05-17T04:50:36;14.37;;;7.97;;
4704;SDS011;2366;51.332;6.610;2023-05-17T04:53:02;16.50;;;7.03;;
4704;SDS011;2366;51.332;6.610;2023-05-17T04:55:27;14.57;;;7.40;;
4704;SDS011;2366;51.332;6.610;2023-05-17T04:57:53;11.87;;;7.40;;
4704;SDS011;2366;51.332;6.610;2023-05-17T05:00:18;10.00;;;5.30;;
4704;SDS011;2366;51.332;6.610;2023-05-17T05:02:46;12.80;;;6.30;;
4704;SDS011;2366;51.332;6.610;2023-05-17T05:05:12;12.03;;;5.07;;
4704;SDS011;2366;51.332;6.610;2023-05-17T05:07:37;14.20;;;5.50;;
4704;SDS011;2366;51.332;6.610;2023-05-17T05:10:04;16.20;;;4.70;;
4704;SDS011;2366;51.332;6.610;2023-05-17T05:12:30;8.75;;;4.63;;
4704;SDS011;2366;51.332;6.610;2023-05-17T05:14:55;12.67;;;5.60;;
4704;SDS011;2366;51.332;6.610;2023-05-17T05:17:21;8.23;;;5.17;;
4704;SDS011;2366;51.332;6.610;2023-05-17T05:19:46;12.10;;;4.90;;
4704;SDS011;2366;51.332;6.610;2023-05-17T05:22:12;7.77;;;4.70;;
4704;SDS011;2366;51.332;6.610;2023-05-17T05:24:37;13.33;;;5.33;;
4704;SDS011;2366;51.332;6.610;2023-05-17T05:27:02;8.43;;;4.87;;
4704;SDS011;2366;51.332;6.610;2023-05-17T05:29:28;12.20;;;5.20;;
4704;SDS011;2366;51.332;6.610;2023-05-17T05:31:53;8.90;;;5.63;;
4704;SDS011;2366;51.332;6.610;2023-05-17T05:34:18;13.57;;;6.47;;
4704;SDS011;2366;51.332;6.610;2023-05-17T05:36:44;7.13;;;5.17;;
4704;SDS011;2366;51.332;6.610;2023-05-17T05:39:09;11.50;;;4.93;;
4704;SDS011;2366;51.332;6.610;2023-05-17T05:41:35;18.83;;;5.67;;
4704;SDS011;2366;51.332;6.610;2023-05-17T05:44:00;13.33;;;6.20;;
4704;SDS011;2366;51.332;6.610;2023-05-17T05:46:25;14.53;;;5.40;;
4704;SDS011;2366;51.332;6.610;2023-05-17T05:48:51;11.90;;;5.30;;
4704;SDS011;2366;51.332;6.610;2023-05-17T05:51:16;17.73;;;7.90;;
4704;SDS011;2366;51.332;6.610;2023-05-17T05:53:43;9.50;;;6.22;;
4704;SDS011;2366;51.332;6.610;2023-05-17T05:56:08;14.20;;;6.10;;
4704;SDS011;2366;51.332;6.610;2023-05-17T05:58:34;10.20;;;5.50;;
4704;SDS011;2366;51.332;6.610;2023-05-17T06:00:59;12.03;;;5.23;;
4704;SDS011;2366;51.332;6.610;2023-05-17T06:03:25;11.57;;;5.70;;
4704;SDS011;2366;51.332;6.610;2023-05-17T06:05:50;11.93;;;4.30;;
4704;SDS011;2366;51.332;6.610;2023-05-17T06:08:16;12.60;;;5.00;;
4704;SDS011;2366;51.332;6.610;2023-05-17T06:10:41;13.23;;;3.87;;
4704;SDS011;2366;51.332;6.610;2023-05-17T06:13:07;10.70;;;3.97;;
4704;SDS011;2366;51.332;6.610;2023-05-17T06:15:32;10.33;;;4.67;;
4704;SDS011;2366;51.332;6.610;2023-05-17T06:17:58;7.83;;;4.50;;
4704;SDS011;2366;51.332;6.610;2023-05-17T06:20:23;8.00;;;4.03;;
4704;SDS011;2366;51.332;6.610;2023-05-17T06:22:49;12.80;;;3.40;;
4704;SDS011;2366;51.332;6.610;2023-05-17T06:25:14;8.00;;;4.00;;
4704;SDS011;2366;51.332;6.610;2023-05-17T06:27:40;11.43;;;4.37;;
4704;SDS011;2366;51.332;6.610;2023-05-17T06:30:06;4.67;;;3.07;;
4704;SDS011;2366;51.332;6.610;2023-05-17T06:32:32;10.33;;;3.60;;
4704;SDS011;2366;51.332;6.610;2023-05-17T06:34:58;8.83;;;2.73;;
4704;SDS011;2366;51.332;6.610;2023-05-17T06:37:23;11.83;;;3.83;;
4704;SDS011;2366;51.332;6.610;2023-05-17T06:39:52;15.23;;;3.53;;
4704;SDS011;2366;51.332;6.610;2023-05-17T06:42:17;8.20;;;3.23;;
4704;SDS011;2366;51.332;6.610;2023-05-17T06:44:43;8.17;;;2.17;;
4704;SDS011;2366;51.332;6.610;2023-05-17T06:47:08;10.93;;;4.23;;
4704;SDS011;2366;51.332;6.610;2023-05-17T06:49:34;6.10;;;2.77;;
4704;SDS011;2366;51.332;6.610;2023-05-17T06:52:02;11.87;;;3.57;;
4704;SDS011;2366;51.332;6.610;2023-05-17T06:54:29;6.10;;;2.80;;
4704;SDS011;2366;51.332;6.610;2023-05-17T06:57:01;8.07;;;3.00;;
4704;SDS011;2366;51.332;6.610;2023-05-17T06:59:27;7.57;;;2.87;;
4704;SDS011;2366;51.332;6.610;2023-05-17T07:01:53;6.77;;;3.20;;
4704;SDS011;2366;51.332;6.610;2023-05-17T07:04:18;9.77;;;3.10;;
4704;SDS011;2366;51.332;6.610;2023-05-17T07:06:44;5.90;;;2.37;;
4704;SDS011;2366;51.332;6.610;2023-05-17T07:09:10;5.33;;;2.13;;
4704;SDS011;2366;51.332;6.610;2023-05-17T07:11:35;7.37;;;2.37;;
4704;SDS011;2366;51.332;6.610;2023-05-17T07:14:00;7.50;;;2.57;;
4704;SDS011;2366;51.332;6.610;2023-05-17T07:16:26;7.97;;;2.20;;
4704;SDS011;2366;51.332;6.610;2023-05-17T07:18:51;4.40;;;2.20;;
4704;SDS011;2366;51.332;6.610;2023-05-17T07:21:17;14.63;;;4.43;;
4704;SDS011;2366;51.332;6.610;2023-05-17T07:23:42;8.70;;;2.10;;
4704;SDS011;2366;51.332;6.610;2023-05-17T07:26:07;6.17;;;2.67;;
4704;SDS011;2366;51.332;6.610;2023-05-17T07:28:33;4.10;;;2.23;;
4704;SDS011;2366;51.332;6.610;2023-05-17T07:30:58;5.20;;;1.90;;
4704;SDS011;2366;51.332;6.610;2023-05-17T07:33:23;4.63;;;2.70;;
4704;SDS011;2366;51.332;6.610;2023-05-17T07:35:49;2.50;;;1.30;;
4704;SDS011;2366;51.332;6.610;2023-05-17T07:38:14;6.70;;;1.63;;
4704;SDS011;2366;51.332;6.610;2023-05-17T07:40:40;8.70;;;1.63;;
4704;SDS011;2366;51.332;6.610;2023-05-17T07:43:05;8.90;;;2.10;;
4704;SDS011;2366;51.332;6.610;2023-05-17T07:45:30;8.80;;;1.80;;
4704;SDS011;2366;51.332;6.610;2023-05-17T07:47:56;8.60;;;2.60;;
4704;SDS011;2366;51.332;6.610;2023-05-17T07:50:21;5.30;;;2.40;;
4704;SDS011;2366;51.332;6.610;2023-05-17T07:52:47;7.60;;;1.70;;
4704;SDS011;2366;51.332;6.610;2023-05-17T07:55:12;13.30;;;2.30;;
4704;SDS011;2366;51.332;6.610;2023-05-17T07:57:38;7.17;;;1.80;;
4704;SDS011;2366;51.332;6.610;2023-05-17T08:00:03;7.10;;;2.63;;
4704;SDS011;2366;51.332;6.610;2023-05-17T08:02:30;6.50;;;2.13;;
4704;SDS011;2366;51.332;6.610;2023-05-17T08:04:55;9.53;;;1.70;;
4704;SDS011;2366;51.332;6.610;2023-05-17T08:07:21;6.27;;;1.87;;
4704;SDS011;2366;51.332;6.610;2023-05-17T08:09:46;7.67;;;1.97;;
4704;SDS011;2366;51.332;6.610;2023-05-17T08:12:11;4.13;;;1.50;;
4704;SDS011;2366;51.332;6.610;2023-05-17T08:14:38;9.77;;;2.53;;
4704;SDS011;2366;51.332;6.610;2023-05-17T08:17:03;7.00;;;1.90;;
4704;SDS011;2366;51.332;6.610;2023-05-17T08:19:29;7.70;;;1.40;;
4704;SDS011;2366;51.332;6.610;2023-05-17T08:21:54;6.23;;;1.67;;
4704;SDS011;2366;51.332;6.610;2023-05-17T08:24:20;5.80;;;1.73;;
4704;SDS011;2366;51.332;6.610;2023-05-17T08:26:46;3.50;;;1.63;;
4704;SDS011;2366;51.332;6.610;2023-05-17T08:29:11;9.50;;;2.40;;
4704;SDS011;2366;51.332;6.610;2023-05-17T08:31:37;6.27;;;1.80;;
4704;SDS011;2366;51.332;6.610;2023-05-17T08:34:02;7.83;;;1.87;;
4704;SDS011;2366;51.332;6.610;2023-05-17T08:36:28;12.40;;;1.97;;
4704;SDS011;2366;51.332;6.610;2023-05-17T08:38:53;8.30;;;1.40;;
4704;SDS011;2366;51.332;6.610;2023-05-17T08:41:19;7.87;;;1.87;;
4704;SDS011;2366;51.332;6.610;2023-05-17T08:43:45;7.50;;;1.50;;
4704;SDS011;2366;51.332;6.610;2023-05-17T08:46:11;6.37;;;1.60;;
4704;SDS011;2366;51.332;6.610;2023-05-17T08:48:38;4.50;;;1.37;;
4704;SDS011;2366;51.332;6.610;2023-05-17T08:51:07;7.03;;;2.17;;
4704;SDS011;2366;51.332;6.610;2023-05-17T08:53:36;9.07;;;2.47;;
4704;SDS011;2366;51.332;6.610;2023-05-17T08:56:02;2.60;;;1.20;;
4704;SDS011;2366;51.332;6.610;2023-05-17T08:58:33;2.17;;;1.30;;
4704;SDS011;2366;51.332;6.610;2023-05-17T09:01:03;5.93;;;1.27;;
4704;SDS011;2366;51.332;6.610;2023-05-17T09:03:31;4.73;;;1.37;;
4704;SDS011;2366;51.332;6.610;2023-05-17T09:05:58;5.70;;;1.10;;
4704;SDS011;2366;51.332;6.610;2023-05-17T09:08:24;6.50;;;2.03;;
4704;SDS011;2366;51.332;6.610;2023-05-17T09:10:52;8.43;;;1.90;;
4704;SDS011;2366;51.332;6.610;2023-05-17T09:13:18;3.20;;;1.30;;
4704;SDS011;2366;51.332;6.610;2023-05-17T09:15:44;4.83;;;1.00;;
4704;SDS011;2366;51.332;6.610;2023-05-17T09:18:11;2.13;;;1.23;;
4704;SDS011;2366;51.332;6.610;2023-05-17T09:20:37;4.13;;;1.13;;
4704;SDS011;2366;51.332;6.610;2023-05-17T09:23:05;5.67;;;1.60;;
4704;SDS011;2366;51.332;6.610;2023-05-17T09:25:33;5.13;;;1.50;;
4704;SDS011;2366;51.332;6.610;2023-05-17T09:28:00;4.60;;;1.20;;
4704;SDS011;2366;51.332;6.610;2023-05-17T09:30:27;3.23;;;1.60;;
4704;SDS011;2366;51.332;6.610;2023-05-17T09:32:54;5.17;;;1.03;;
4704;SDS011;2366;51.332;6.610;2023-05-17T09:35:28;6.80;;;2.13;;
4704;SDS011;2366;51.332;6.610;2023-05-17T09:37:56;6.80;;;1.40;;
4704;SDS011;2366;51.332;6.610;2023-05-17T09:40:30;6.73;;;1.80;;
4704;SDS011;2366;51.332;6.610;2023-05-17T09:42:56;2.10;;;1.07;;
4704;SDS011;2366;51.332;6.610;2023-05-17T09:45:22;8.73;;;1.80;;
4704;SDS011;2366;51.332;6.610;2023-05-17T09:47:48;5.17;;;1.60;;
4704;SDS011;2366;51.332;6.610;2023-05-17T09:50:18;5.90;;;1.40;;
4704;SDS011;2366;51.332;6.610;2023-05-17T09:52:45;4.63;;;1.33;;
4704;SDS011;2366;51.332;6.610;2023-05-17T09:55:10;5.33;;;1.17;;
4704;SDS011;2366;51.332;6.610;2023-05-17T09:57:37;3.20;;;1.50;;
4704;SDS011;2366;51.332;6.610;2023-05-17T10:00:04;5.70;;;1.53;;
4704;SDS011;2366;51.332;6.610;2023-05-17T10:02:36;8.23;;;1.80;;
4704;SDS011;2366;51.332;6.610;2023-05-17T10:05:07;2.40;;;1.10;;
4704;SDS011;2366;51.332;6.610;2023-05-17T10:07:35;10.43;;;1.20;;
4704;SDS011;2366;51.332;6.610;2023-05-17T10:10:02;9.93;;;2.03;;
4704;SDS011;2366;51.332;6.610;2023-05-17T10:12:28;11.20;;;1.80;;
4704;SDS011;2366;51.332;6.610;2023-05-17T10:14:57;4.27;;;1.33;;
4704;SDS011;2366;51.332;6.610;2023-05-17T10:17:25;4.67;;;1.70;;
4704;SDS011;2366;51.332;6.610;2023-05-17T10:19:53;5.50;;;1.53;;
4704;SDS011;2366;51.332;6.610;2023-05-17T10:22:20;7.53;;;1.70;;
4704;SDS011;2366;51.332;6.610;2023-05-17T10:24:46;4.13;;;1.40;;
4704;SDS011;2366;51.332;6.610;2023-05-17T10:27:12;5.33;;;1.50;;
4704;SDS011;2366;51.332;6.610;2023-05-17T10:29:39;7.50;;;1.47;;
4704;SDS011;2366;51.332;6.610;2023-05-17T10:32:05;7.17;;;2.07;;
4704;SDS011;2366;51.332;6.610;2023-05-17T10:34:32;4.40;;;1.30;;
4704;SDS011;2366;51.332;6.610;2023-05-17T10:37:01;4.88;;;1.40;;
4704;SDS011;2366;51.332;6.610;2023-05-17T10:39:27;3.72;;;1.98;;
4704;SDS011;2366;51.332;6.610;2023-05-17T10:41:53;5.93;;;1.25;;
4704;SDS011;2366;51.332;6.610;2023-05-17T10:44:21;4.30;;;1.67;;
4704;SDS011;2366;51.332;6.610;2023-05-17T10:46:50;4.55;;;1.90;;
4704;SDS011;2366;51.332;6.610;2023-05-17T10:49:22;4.80;;;1.40;;
4704;SDS011;2366;51.332;6.610;2023-05-17T10:51:50;4.38;;;1.48;;
4704;SDS011;2366;51.332;6.610;2023-05-17T10:54:15;3.70;;;1.60;;
4704;SDS011;2366;51.332;6.610;2023-05-17T10:57:01;5.60;;;1.80;;
4704;SDS011;2366;51.332;6.610;2023-05-17T10:59:28;3.58;;;1.65;;
4704;SDS011;2366;51.332;6.610;2023-05-17T11:01:59;4.00;;;1.70;;
4704;SDS011;2366;51.332;6.610;2023-05-17T11:09:45;2.75;;;1.60;;
4704;SDS011;2366;51.332;6.610;2023-05-17T11:12:13;5.35;;;1.35;;
4704;SDS011;2366;51.332;6.610;2023-05-17T11:14:46;2.15;;;1.50;;
4704;SDS011;2366;51.332;6.610;2023-05-17T11:17:19;9.25;;;1.85;;
4704;SDS011;2366;51.332;6.610;2023-05-17T11:19:48;2.03;;;1.25;;
4704;SDS011;2366;51.332;6.610;2023-05-17T11:22:26;2.75;;;0.80;;
4704;SDS011;2366;51.332;6.610;2023-05-17T11:24:57;3.95;;;1.27;;
4704;SDS011;2366;51.332;6.610;2023-05-17T11:27:25;4.72;;;1.98;;
4704;SDS011;2366;51.332;6.610;2023-05-17T11:29:53;8.40;;;1.23;;
4704;SDS011;2366;51.332;6.610;2023-05-17T11:32:27;3.60;;;1.90;;
4704;SDS011;2366;51.332;6.610;2023-05-17T11:34:59;2.42;;;1.23;;
4704;SDS011;2366;51.332;6.610;2023-05-17T11:37:26;9.32;;;1.50;;
4704;SDS011;2366;51.332;6.610;2023-05-17T11:40:00;8.93;;;1.85;;
4704;SDS011;2366;51.332;6.610;2023-05-17T11:42:30;7.13;;;1.98;;
4704;SDS011;2366;51.332;6.610;2023-05-17T11:44:56;5.60;;;1.50;;
4704;SDS011;2366;51.332;6.610;2023-05-17T11:47:25;8.02;;;2.30;;
4704;SDS011;2366;51.332;6.610;2023-05-17T11:49:51;5.65;;;1.63;;
4704;SDS011;2366;51.332;6.610;2023-05-17T11:52:18;3.17;;;1.45;;
4704;SDS011;2366;51.332;6.610;2023-05-17T11:54:44;6.40;;;1.93;;
4704;SDS011;2366;51.332;6.610;2023-05-17T11:57:10;3.10;;;1.33;;
4704;SDS011;2366;51.332;6.610;2023-05-17T11:59:39;3.85;;;1.83;;
4704;SDS011;2366;51.332;6.610;2023-05-17T12:02:04;3.63;;;1.30;;
4704;SDS011;2366;51.332;6.610;2023-05-17T12:04:33;3.40;;;1.43;;
4704;SDS011;2366;51.332;6.610;2023-05-17T12:07:01;2.65;;;1.15;;
4704;SDS011;2366;51.332;6.610;2023-05-17T12:09:26;4.40;;;1.53;;
4704;SDS011;2366;51.332;6.610;2023-05-17T12:11:52;5.60;;;1.37;;
4704;SDS011;2366;51.332;6.610;2023-05-17T12:14:17;1.37;;;1.10;;
4704;SDS011;2366;51.332;6.610;2023-05-17T12:16:44;4.47;;;1.67;;
4704;SDS011;2366;51.332;6.610;2023-05-17T12:19:17;7.75;;;1.55;;
4704;SDS011;2366;51.332;6.610;2023-05-17T12:21:44;4.70;;;1.63;;
4704;SDS011;2366;51.332;6.610;2023-05-17T12:24:10;9.93;;;1.77;;
4704;SDS011;2366;51.332;6.610;2023-05-17T12:26:35;5.07;;;1.63;;
4704;SDS011;2366;51.332;6.610;2023-05-17T12:29:08;3.40;;;1.30;;
4704;SDS011;2366;51.332;6.610;2023-05-17T12:31:35;3.15;;;1.40;;
4704;SDS011;2366;51.332;6.610;2023-05-17T12:34:04;5.00;;;1.70;;
4704;SDS011;2366;51.332;6.610;2023-05-17T12:36:31;4.82;;;1.67;;
4704;SDS011;2366;51.332;6.610;2023-05-17T12:39:01;10.23;;;1.83;;
4704;SDS011;2366;51.332;6.610;2023-05-17T12:41:30;4.60;;;1.48;;
4704;SDS011;2366;51.332;6.610;2023-05-17T12:43:56;5.43;;;1.60;;
4704;SDS011;2366;51.332;6.610;2023-05-17T12:46:22;5.10;;;1.40;;
4704;SDS011;2366;51.332;6.610;2023-05-17T12:48:49;5.72;;;2.40;;
4704;SDS011;2366;51.332;6.610;2023-05-17T12:51:16;3.70;;;1.40;;
4704;SDS011;2366;51.332;6.610;2023-05-17T12:56:26;6.18;;;1.50;;
4704;SDS011;2366;51.332;6.610;2023-05-17T13:04:27;5.50;;;2.03;;
4704;SDS011;2366;51.332;6.610;2023-05-17T13:06:56;10.68;;;2.20;;
4704;SDS011;2366;51.332;6.610;2023-05-17T13:09:24;8.40;;;1.90;;
4704;SDS011;2366;51.332;6.610;2023-05-17T13:11:58;3.80;;;2.35;;
4704;SDS011;2366;51.332;6.610;2023-05-17T13:14:42;2.33;;;1.60;;
4704;SDS011;2366;51.332;6.610;2023-05-17T13:17:09;5.70;;;1.80;;
4704;SDS011;2366;51.332;6.610;2023-05-17T13:19:36;3.55;;;1.80;;
4704;SDS011;2366;51.332;6.610;2023-05-17T13:22:02;3.30;;;1.67;;
4704;SDS011;2366;51.332;6.610;2023-05-17T13:24:32;5.72;;;1.85;;
4704;SDS011;2366;51.332;6.610;2023-05-17T13:26:59;6.50;;;1.95;;
4704;SDS011;2366;51.332;6.610;2023-05-17T13:29:25;5.30;;;1.83;;
4704;SDS011;2366;51.332;6.610;2023-05-17T13:31:50;5.37;;;1.23;;
4704;SDS011;2366;51.332;6.610;2023-05-17T13:34:17;5.07;;;1.80;;
4704;SDS011;2366;51.332;6.610;2023-05-17T13:36:43;4.00;;;1.50;;
4704;SDS011;2366;51.332;6.610;2023-05-17T13:39:08;8.07;;;1.70;;
4704;SDS011;2366;51.332;6.610;2023-05-17T13:41:33;3.10;;;1.20;;
4704;SDS011;2366;51.332;6.610;2023-05-17T13:43:59;2.20;;;1.53;;
4704;SDS011;2366;51.332;6.610;2023-05-17T13:46:25;6.00;;;1.80;;
4704;SDS011;2366;51.332;6.610;2023-05-17T13:48:50;9.53;;;1.97;;
4704;SDS011;2366;51.332;6.610;2023-05-17T13:51:17;4.25;;;1.40;;
4704;SDS011;2366;51.332;6.610;2023-05-17T13:53:43;4.57;;;1.60;;
4704;SDS011;2366;51.332;6.610;2023-05-17T13:56:08;12.27;;;2.53;;
4704;SDS011;2366;51.332;6.610;2023-05-17T13:58:34;3.13;;;1.53;;
4704;SDS011;2366;51.332;6.610;2023-05-17T14:00:59;2.30;;;1.63;;
4704;SDS011;2366;51.332;6.610;2023-05-17T14:03:24;4.60;;;1.47;;
4704;SDS011;2366;51.332;6.610;2023-05-17T14:05:50;7.03;;;1.77;;
4704;SDS011;2366;51.332;6.610;2023-05-17T14:08:16;2.83;;;2.03;;
4704;SDS011;2366;51.332;6.610;2023-05-17T14:10:43;4.85;;;2.15;;
4704;SDS011;2366;51.332;6.610;2023-05-17T14:13:08;4.83;;;2.20;;
4704;SDS011;2366;51.332;6.610;2023-05-17T14:15:35;4.72;;;3.05;;
4704;SDS011;2366;51.332;6.610;2023-05-17T14:18:05;4.47;;;1.60;;
4704;SDS011;2366;51.332;6.610;2023-05-17T14:20:32;12.18;;;2.13;;
4704;SDS011;2366;51.332;6.610;2023-05-17T14:22:57;3.97;;;1.70;;
4704;SDS011;2366;51.332;6.610;2023-05-17T14:25:23;4.47;;;2.20;;
4704;SDS011;2366;51.332;6.610;2023-05-17T14:27:49;8.23;;;2.00;;
4704;SDS011;2366;51.332;6.610;2023-05-17T14:30:14;5.50;;;1.60;;
4704;SDS011;2366;51.332;6.610;2023-05-17T14:32:40;10.63;;;1.77;;
4704;SDS011;2366;51.332;6.610;2023-05-17T14:35:06;3.83;;;2.13;;
4704;SDS011;2366;51.332;6.610;2023-05-17T14:37:32;7.18;;;2.10;;
4704;SDS011;2366;51.332;6.610;2023-05-17T14:39:58;3.43;;;1.60;;
4704;SDS011;2366;51.332;6.610;2023-05-17T14:42:24;6.53;;;1.50;;
4704;SDS011;2366;51.332;6.610;2023-05-17T14:44:50;9.82;;;1.77;;
4704;SDS011;2366;51.332;6.610;2023-05-17T14:47:15;5.33;;;1.70;;
4704;SDS011;2366;51.332;6.610;2023-05-17T14:49:41;9.87;;;1.60;;
4704;SDS011;2366;51.332;6.610;2023-05-17T14:52:06;5.90;;;1.90;;
4704;SDS011;2366;51.332;6.610;2023-05-17T14:54:33;2.85;;;1.70;;
4704;SDS011;2366;51.332;6.610;2023-05-17T14:56:59;1.77;;;1.67;;
4704;SDS011;2366;51.332;6.610;2023-05-17T14:59:25;5.93;;;2.37;;
4704;SDS011;2366;51.332;6.610;2023-05-17T15:01:50;4.50;;;1.73;;
4704;SDS011;2366;51.332;6.610;2023-05-17T15:04:15;1.50;;;1.40;;
4704;SDS011;2366;51.332;6.610;2023-05-17T15:06:41;5.23;;;1.60;;
4704;SDS011;2366;51.332;6.610;2023-05-17T15:09:07;7.97;;;2.93;;
4704;SDS011;2366;51.332;6.610;2023-05-17T15:11:36;6.90;;;2.03;;
4704;SDS011;2366;51.332;6.610;2023-05-17T15:14:02;7.33;;;3.17;;
4704;SDS011;2366;51.332;6.610;2023-05-17T15:16:27;2.00;;;1.47;;
4704;SDS011;2366;51.332;6.610;2023-05-17T15:18:53;11.63;;;2.03;;
4704;SDS011;2366;51.332;6.610;2023-05-17T15:21:18;4.87;;;1.57;;
4704;SDS011;2366;51.332;6.610;2023-05-17T15:23:44;6.20;;;2.23;;
4704;SDS011;2366;51.332;6.610;2023-05-17T15:26:10;6.13;;;1.45;;
4704;SDS011;2366;51.332;6.610;2023-05-17T15:28:35;4.83;;;1.67;;
4704;SDS011;2366;51.332;6.610;2023-05-17T15:31:01;4.67;;;1.90;;